createdAt,value
2023-04-04T00:00:00.000Z,61.58
2023-04-04T00:15:00.000Z,62.81
2023-04-04T00:30:00.000Z,63.42
2023-04-04T00:45:00.000Z,63.47
2023-04-04T01:00:00.000Z,64.65
2023-04-04T01:15:00.000Z,63.63
2023-04-04T01:30:00.000Z,62.93
2023-04-04T01:45:00.000Z,63.63
2023-04-04T02:00:00.000Z,61.56
2023-04-04T02:15:00.000Z,59.8
2023-04-04T02:30:00.000Z,59.63
2023-04-04T02:45:00.000Z,60.89
2023-04-04T03:00:00.000Z,60.76
2023-04-04T03:15:00.000Z,61.31
2023-04-04T03:30:00.000Z,64.06
2023-04-04T03:45:00.000Z,65.98
2023-04-04T04:00:00.000Z,65.5
2023-04-04T04:15:00.000Z,65.08
2023-04-04T04:30:00.000Z,68.27
2023-04-04T04:45:00.000Z,69.58
2023-04-04T05:00:00.000Z,70.07
2023-04-04T05:15:00.000Z,69.98
2023-04-04T05:30:00.000Z,64.48
2023-04-04T05:45:00.000Z,55.57
2023-04-04T06:00:00.000Z,51.8
2023-04-04T06:15:00.000Z,48.56
2023-04-04T06:30:00.000Z,46.98
2023-04-04T06:45:00.000Z,41.85
2023-04-04T07:00:00.000Z,38.38
2023-04-04T07:15:00.000Z,35.27
2023-04-04T07:30:00.000Z,32.53
2023-04-04T07:45:00.000Z,32.41
2023-04-04T08:00:00.000Z,31.77
2023-04-04T08:15:00.000Z,30.48
2023-04-04T08:30:00.000Z,30.65
2023-04-04T08:45:00.000Z,31.94
2023-04-04T09:00:00.000Z,29.78
2023-04-04T09:15:00.000Z,29.77
2023-04-04T09:30:00.000Z,29.32
2023-04-04T09:45:00.000Z,28.61
2023-04-04T10:00:00.000Z,28.22
2023-04-04T10:15:00.000Z,28.05
2023-04-04T10:30:00.000Z,28.98
2023-04-04T10:45:00.000Z,31.4
2023-04-04T11:00:00.000Z,31.19
2023-04-04T11:15:00.000Z,32.46
2023-04-04T11:30:00.000Z,32.53
2023-04-04T11:45:00.000Z,31.65
2023-04-04T12:00:00.000Z,30.39
2023-04-04T12:15:00.000Z,31.15
2023-04-04T12:30:00.000Z,33.36
2023-04-04T12:45:00.000Z,34.15
2023-04-04T13:00:00.000Z,33.76
2023-04-04T13:15:00.000Z,34.05
2023-04-04T13:30:00.000Z,33.09
2023-04-04T13:45:00.000Z,33.1
2023-04-04T14:00:00.000Z,31.9
2023-04-04T14:15:00.000Z,32.22
2023-04-04T14:30:00.000Z,33.77
2023-04-04T14:45:00.000Z,33
2023-04-04T15:00:00.000Z,32.6
2023-04-04T15:15:00.000Z,32.37
2023-04-04T15:30:00.000Z,34.65
2023-04-04T15:45:00.000Z,34.91
2023-04-04T16:00:00.000Z,36.56
2023-04-04T16:15:00.000Z,34.91
2023-04-04T16:30:00.000Z,35.15
2023-04-04T16:45:00.000Z,36.9
2023-04-04T17:00:00.000Z,38.4
2023-04-04T17:15:00.000Z,38.98
2023-04-04T17:30:00.000Z,40.66
2023-04-04T17:45:00.000Z,41.18
2023-04-04T18:00:00.000Z,41.77
2023-04-04T18:15:00.000Z,42.07
2023-04-04T18:30:00.000Z,43.53
2023-04-04T18:45:00.000Z,45.29
2023-04-04T19:00:00.000Z,48.35
2023-04-04T19:15:00.000Z,51.11
2023-04-04T19:30:00.000Z,50.89
2023-04-04T19:45:00.000Z,50.03
2023-04-04T20:00:00.000Z,50.25
2023-04-04T20:15:00.000Z,52.26
2023-04-04T20:30:00.000Z,54.53
2023-04-04T20:45:00.000Z,53.72
2023-04-04T21:00:00.000Z,54.72
2023-04-04T21:15:00.000Z,54.08
2023-04-04T21:30:00.000Z,54.17
2023-04-04T21:45:00.000Z,54.62
2023-04-04T22:00:00.000Z,56.05
2023-04-04T22:15:00.000Z,56.64
2023-04-04T22:30:00.000Z,56.74
2023-04-04T22:45:00.000Z,58.45
2023-04-04T23:00:00.000Z,59.22
2023-04-04T23:15:00.000Z,57.61
2023-04-04T23:30:00.000Z,57.82
2023-04-04T23:45:00.000Z,58.7
